Time;durP1;ratioP1;P1;durP2;ratioP2;P2;SDS_P1;SDS_P2;PMS_P1;PMS_P2;Temp;Humidity;BMP_temperature;BMP_pressure;BME280_temperature;BME280_humidity;BME280_pressure;Samples;Min_cycle;Max_cycle;Signal;HPM_P1;HPM_P2
2021/03/03 00:02:07;;;;;;;102.58;41.68;;;;;;;0.96;64.08;101767.62;147770;1147;104525;-76
2021/03/03 00:05:12;;;;;;;108.45;45.35;;;;;;;0.97;63.88;101771.98;147739;1147;104460;-76
2021/03/03 00:08:15;;;;;;;108.60;45.67;;;;;;;0.97;64.16;101756.22;147796;1147;104550;-77
2021/03/03 00:11:18;;;;;;;116.88;46.02;;;;;;;0.97;64.20;101758.84;147731;1147;104533;-74
2021/03/03 00:14:22;;;;;;;135.93;52.70;;;;;;;0.95;64.23;101763.30;147774;1147;104548;-75
2021/03/03 00:17:25;;;;;;;119.85;47.67;;;;;;;0.94;64.24;101746.68;147747;1147;104611;-76
2021/03/03 00:20:28;;;;;;;118.80;47.62;;;;;;;0.91;64.10;101756.44;147767;1148;104550;-72
2021/03/03 00:23:32;;;;;;;139.95;52.58;;;;;;;0.93;64.08;101749.36;147771;1147;104447;-76
2021/03/03 00:26:35;;;;;;;134.47;47.62;;;;;;;0.94;64.23;101741.42;147769;1147;104571;-73
2021/03/03 00:29:38;;;;;;;140.73;55.73;;;;;;;0.95;64.54;101742.27;147756;1146;104503;-75
2021/03/03 00:32:41;;;;;;;111.00;43.20;;;;;;;0.87;64.38;101741.70;147666;1147;104477;-76
2021/03/03 00:35:44;;;;;;;142.90;56.97;;;;;;;0.85;64.06;101735.61;147737;1147;104586;-75
2021/03/03 00:38:48;;;;;;;111.40;43.80;;;;;;;0.86;64.27;101737.34;147783;1147;104962;-74
2021/03/03 00:41:51;;;;;;;150.60;59.53;;;;;;;0.92;63.93;101745.00;147769;1147;104647;-75
2021/03/03 00:44:54;;;;;;;111.62;44.20;;;;;;;0.97;64.42;101743.08;147749;1147;104562;-75
2021/03/03 00:47:57;;;;;;;137.85;56.25;;;;;;;1.03;63.99;101750.73;147724;1147;104943;-74
2021/03/03 00:51:02;;;;;;;121.72;46.83;;;;;;;1.10;64.13;101743.50;147771;1147;104537;-75
2021/03/03 00:54:06;;;;;;;134.95;54.83;;;;;;;1.16;63.90;101745.91;147771;1147;104473;-76
2021/03/03 00:57:10;;;;;;;123.62;53.63;;;;;;;1.23;64.17;101741.27;147758;1147;104671;-77
2021/03/03 01:00:15;;;;;;;144.37;57.65;;;;;;;1.33;64.38;101738.25;147791;1147;104535;-78
2021/03/03 01:03:19;;;;;;;123.97;52.35;;;;;;;1.38;63.76;101730.17;147779;1146;104556;-77
2021/03/03 01:06:24;;;;;;;146.80;60.67;;;;;;;1.46;63.70;101724.63;147748;1147;104535;-78
2021/03/03 01:09:28;;;;;;;127.00;54.65;;;;;;;1.52;64.63;101721.75;147827;1147;104537;-80
2021/03/03 01:12:32;;;;;;;143.60;57.10;;;;;;;1.57;64.61;101723.29;147765;1147;104623;-75
2021/03/03 01:15:39;;;;;;;127.25;56.28;;;;;;;1.63;64.34;101719.57;147790;1145;104578;-75
2021/03/03 01:18:48;;;;;;;146.37;60.95;;;;;;;1.70;63.71;101717.58;147780;1148;104470;-75
2021/03/03 01:21:51;;;;;;;137.68;58.85;;;;;;;1.70;64.94;101707.89;147769;1147;104535;-74
2021/03/03 01:24:54;;;;;;;150.32;63.80;;;;;;;1.76;63.80;101712.06;147694;1147;104461;-74
2021/03/03 01:27:57;;;;;;;139.35;56.98;;;;;;;1.78;64.13;101707.59;147593;1147;104620;-75
2021/03/03 01:31:01;;;;;;;155.97;64.32;;;;;;;1.83;64.89;101710.91;147373;1146;104458;-76
2021/03/03 01:34:04;;;;;;;156.15;63.65;;;;;;;1.88;64.21;101710.72;147751;1147;104860;-75
2021/03/03 01:37:07;;;;;;;153.02;66.82;;;;;;;1.95;64.83;101710.41;147597;1146;104492;-77
2021/03/03 01:40:13;;;;;;;156.15;66.15;;;;;;;2.00;64.33;101707.58;147288;1147;104559;-77
2021/03/03 01:43:16;;;;;;;153.23;63.90;;;;;;;2.00;64.61;101701.46;147318;1147;104608;-76
2021/03/03 01:46:20;;;;;;;171.05;70.20;;;;;;;2.00;64.66;101694.41;147693;1147;104567;-74
2021/03/03 01:49:23;;;;;;;168.25;67.42;;;;;;;2.03;65.24;101702.20;147705;1146;104514;-75
2021/03/03 01:52:26;;;;;;;176.85;70.08;;;;;;;2.06;64.72;101691.55;147589;1147;104540;-75
2021/03/03 01:55:30;;;;;;;161.73;67.20;;;;;;;2.10;65.43;101694.92;147801;1147;104473;-76
2021/03/03 01:58:33;;;;;;;167.98;70.37;;;;;;;2.13;64.75;101694.78;147560;1147;104528;-75
2021/03/03 02:01:36;;;;;;;178.18;69.80;;;;;;;2.16;64.87;101705.20;147767;1147;104592;-76
2021/03/03 02:04:39;;;;;;;176.37;69.80;;;;;;;2.21;65.00;101700.58;147636;1147;104491;-75
2021/03/03 02:07:49;;;;;;;167.20;70.03;;;;;;;2.26;65.91;101695.98;147534;1147;104549;-75
2021/03/03 02:11:02;;;;;;;172.43;70.80;;;;;;;2.30;65.25;101689.66;147720;1148;104531;-75
2021/03/03 02:14:11;;;;;;;179.65;72.92;;;;;;;2.30;65.28;101681.76;147436;1147;104677;-76
2021/03/03 02:17:15;;;;;;;156.55;60.00;;;;;;;2.29;65.15;101680.06;147623;1148;104544;-76
2021/03/03 02:20:22;;;;;;;176.60;70.85;;;;;;;2.33;66.34;101688.70;147790;1147;104503;-77
2021/03/03 02:23:42;;;;;;;178.57;71.12;;;;;;;2.37;65.60;101685.01;147689;1148;104450;-75
2021/03/03 02:26:48;;;;;;;164.52;64.50;;;;;;;2.38;66.70;101680.59;147694;1147;104588;-81
2021/03/03 02:29:53;;;;;;;173.87;66.77;;;;;;;2.42;66.74;101674.27;147788;1147;104550;-77
2021/03/03 02:32:57;;;;;;;170.00;63.80;;;;;;;2.44;66.25;101673.27;147446;1147;104538;-78
2021/03/03 02:36:01;;;;;;;149.68;60.25;;;;;;;2.48;66.59;101669.60;147320;1146;104453;-83
2021/03/03 02:39:06;;;;;;;159.07;62.23;;;;;;;2.46;66.03;101660.87;147337;1147;104908;-79
2021/03/03 02:42:12;;;;;;;139.97;54.75;;;;;;;2.47;65.62;101669.66;147571;1147;104461;-72
2021/03/03 02:45:19;;;;;;;124.07;48.00;;;;;;;2.52;65.61;101662.39;147344;1146;104620;-78
2021/03/03 02:48:23;;;;;;;118.82;46.53;;;;;;;2.61;66.50;101662.00;147452;1146;104525;-79
2021/03/03 02:51:26;;;;;;;104.97;43.73;;;;;;;2.71;66.14;101655.42;147437;1147;104581;-76
2021/03/03 02:54:29;;;;;;;82.53;36.85;;;;;;;2.76;67.01;101649.94;147438;1148;104604;-77
2021/03/03 02:57:32;;;;;;;72.42;33.73;;;;;;;2.78;66.51;101647.23;147420;1147;104545;-84
2021/03/03 03:00:38;;;;;;;62.78;32.10;;;;;;;2.79;66.85;101654.20;147593;1147;104550;-78
2021/03/03 03:03:49;;;;;;;58.07;29.20;;;;;;;2.78;67.10;101642.81;147478;1147;104477;-76
2021/03/03 03:06:53;;;;;;;60.87;30.13;;;;;;;2.78;66.97;101641.97;147393;1147;104450;-76
2021/03/03 03:10:01;;;;;;;53.03;26.87;;;;;;;2.80;67.16;101640.11;147797;1147;104546;-78
2021/03/03 03:13:09;;;;;;;50.83;26.33;;;;;;;2.75;68.01;101646.45;147790;1147;104481;-77
2021/03/03 03:16:13;;;;;;;48.00;26.12;;;;;;;2.70;67.30;101645.79;147755;1147;104623;-75
2021/03/03 03:19:20;;;;;;;69.53;32.23;;;;;;;2.68;67.26;101637.09;147801;1147;104598;-77
2021/03/03 03:22:26;;;;;;;71.17;32.95;;;;;;;2.68;67.86;101641.52;147767;1147;104470;-73
2021/03/03 03:25:30;;;;;;;54.53;26.73;;;;;;;2.67;67.50;101645.91;147719;1148;104538;-76
2021/03/03 03:28:37;;;;;;;59.23;27.52;;;;;;;2.71;68.50;101647.52;147789;1146;104530;-75
2021/03/03 03:31:41;;;;;;;51.13;24.63;;;;;;;2.83;68.36;101640.84;147786;1147;104607;-74
2021/03/03 03:34:44;;;;;;;48.78;24.87;;;;;;;2.89;66.93;101645.82;147511;1147;104567;-75
2021/03/03 03:37:48;;;;;;;48.50;26.00;;;;;;;2.93;67.42;101646.55;147682;1147;104540;-75
2021/03/03 03:40:51;;;;;;;51.93;26.23;;;;;;;2.93;67.45;101643.91;147491;1148;104489;-78
2021/03/03 03:43:56;;;;;;;49.83;26.13;;;;;;;2.97;67.70;101639.36;147661;1147;104548;-77
2021/03/03 03:47:00;;;;;;;50.15;26.50;;;;;;;3.01;68.47;101649.68;147815;1147;104915;-77
2021/03/03 03:50:06;;;;;;;47.73;25.97;;;;;;;2.95;67.70;101640.27;147759;1146;104480;-78
2021/03/03 03:53:10;;;;;;;50.73;26.77;;;;;;;2.94;68.27;101632.42;147636;1146;104543;-72
2021/03/03 03:56:13;;;;;;;46.93;25.90;;;;;;;2.94;67.20;101632.42;147401;1147;104543;-73
2021/03/03 03:59:16;;;;;;;46.13;25.92;;;;;;;2.89;67.29;101631.80;147723;1146;104482;-75
2021/03/03 04:02:19;;;;;;;50.12;26.17;;;;;;;2.84;67.36;101621.44;147660;1147;104471;-73
2021/03/03 04:05:23;;;;;;;49.23;26.57;;;;;;;2.88;67.34;101627.43;147945;1146;104470;-76
2021/03/03 04:08:26;;;;;;;38.05;19.90;;;;;;;2.98;67.38;101628.71;148029;1146;104464;-76
2021/03/03 04:11:29;;;;;;;43.98;23.55;;;;;;;3.03;68.13;101625.88;147535;1147;104466;-75
2021/03/03 04:14:33;;;;;;;43.52;24.57;;;;;;;3.01;67.66;101615.40;147609;1147;104927;-74
2021/03/03 04:17:36;;;;;;;44.35;25.45;;;;;;;3.03;68.44;101616.19;147504;1146;104531;-75
2021/03/03 04:20:41;;;;;;;41.98;24.80;;;;;;;3.05;67.94;101624.88;147899;1147;104581;-75
2021/03/03 04:23:44;;;;;;;43.58;24.37;;;;;;;3.01;68.00;101623.31;147951;1147;104549;-75
2021/03/03 04:26:47;;;;;;;41.48;24.40;;;;;;;3.06;68.04;101631.00;147842;1147;104471;-78
2021/03/03 04:29:51;;;;;;;45.87;25.50;;;;;;;3.03;68.22;101632.00;147666;1148;105625;-79
2021/03/03 04:32:54;;;;;;;42.05;24.15;;;;;;;2.99;67.31;101619.05;147784;1146;104567;-76
2021/03/03 04:35:57;;;;;;;42.90;25.02;;;;;;;2.94;67.30;101624.51;147783;1147;104862;-76
2021/03/03 04:39:00;;;;;;;43.05;24.70;;;;;;;2.88;67.83;101616.89;147728;1147;104476;-75
2021/03/03 04:42:05;;;;;;;44.10;24.65;;;;;;;2.85;68.21;101617.02;147494;1147;104541;-78
2021/03/03 04:45:11;;;;;;;46.35;24.55;;;;;;;2.86;67.49;101616.10;147773;1147;104547;-75
2021/03/03 04:48:15;;;;;;;36.07;19.97;;;;;;;2.87;67.72;101615.20;147805;1147;104802;-80
2021/03/03 04:51:18;;;;;;;41.25;23.75;;;;;;;2.90;68.24;101615.03;147815;1147;104576;-79
2021/03/03 04:54:21;;;;;;;39.98;23.60;;;;;;;2.92;68.41;101613.18;147303;1147;104486;-76
2021/03/03 04:57:24;;;;;;;41.23;23.02;;;;;;;2.92;68.15;101613.18;147586;1148;104553;-76
2021/03/03 05:00:28;;;;;;;39.30;23.02;;;;;;;2.92;67.93;101602.63;147735;1146;104546;-75
2021/03/03 05:03:31;;;;;;;47.07;26.07;;;;;;;2.86;67.49;101610.83;147768;1146;104529;-74
2021/03/03 05:06:34;;;;;;;54.00;28.75;;;;;;;2.84;68.97;101599.50;147814;1147;105001;-79
2021/03/03 05:09:37;;;;;;;47.88;26.23;;;;;;;2.79;67.57;101601.48;147697;1146;104581;-75
2021/03/03 05:12:41;;;;;;;74.15;35.85;;;;;;;2.73;68.76;101603.50;147370;1148;104461;-75
2021/03/03 05:15:44;;;;;;;53.02;28.17;;;;;;;2.73;68.17;101602.62;147295;1146;104471;-75
2021/03/03 05:18:47;;;;;;;70.57;35.67;;;;;;;2.70;68.52;101593.08;147695;1147;104596;-75
2021/03/03 05:21:51;;;;;;;49.50;27.17;;;;;;;2.68;68.80;101591.45;147828;1147;104548;-75
2021/03/03 05:24:54;;;;;;;42.23;23.90;;;;;;;2.71;68.59;101594.80;147746;1147;104528;-77
2021/03/03 05:27:57;;;;;;;37.37;21.67;;;;;;;2.78;68.36;101597.16;147718;1146;104435;-75
2021/03/03 05:31:01;;;;;;;50.10;28.92;;;;;;;2.82;68.08;101590.81;147766;1146;104476;-72
2021/03/03 05:34:04;;;;;;;46.08;27.42;;;;;;;2.85;69.21;101593.28;147722;1147;104543;-74
2021/03/03 05:37:08;;;;;;;44.85;26.57;;;;;;;2.87;68.42;101586.20;147782;1146;104636;-75
2021/03/03 05:40:13;;;;;;;46.85;28.65;;;;;;;2.86;68.37;101589.74;147600;1147;104478;-73
2021/03/03 05:43:17;;;;;;;49.80;29.57;;;;;;;2.78;68.99;101594.52;147445;1146;104464;-73
2021/03/03 05:46:20;;;;;;;50.60;27.93;;;;;;;2.75;68.47;101593.73;147468;1147;104448;-74
2021/03/03 05:49:26;;;;;;;53.02;27.45;;;;;;;2.75;68.52;101585.83;147764;1146;104707;-73
2021/03/03 05:52:33;;;;;;;49.10;25.43;;;;;;;2.73;68.12;101582.41;147869;1147;104452;-74
2021/03/03 05:55:37;;;;;;;48.35;25.10;;;;;;;2.73;68.23;101586.80;147777;1148;104997;-72
2021/03/03 05:58:41;;;;;;;41.20;22.50;;;;;;;2.74;68.99;101584.10;147762;1147;104544;-73
2021/03/03 06:01:45;;;;;;;47.07;24.63;;;;;;;2.74;67.90;101586.73;147671;1147;104534;-73
2021/03/03 06:04:50;;;;;;;56.98;28.90;;;;;;;2.80;68.45;101587.39;147772;1147;104618;-74
2021/03/03 06:07:53;;;;;;;34.70;19.47;;;;;;;2.86;67.80;101581.83;147776;1146;104532;-74
2021/03/03 06:10:57;;;;;;;35.03;21.27;;;;;;;2.93;68.51;101588.55;147628;1147;104535;-73
2021/03/03 06:14:01;;;;;;;37.95;22.22;;;;;;;2.95;67.82;101589.33;147780;1148;104538;-74
2021/03/03 06:17:04;;;;;;;40.12;23.60;;;;;;;2.95;68.35;101584.90;147695;1147;104550;-74
2021/03/03 06:20:10;;;;;;;47.13;25.37;;;;;;;2.99;67.76;101582.98;147640;1147;104645;-75
2021/03/03 06:23:16;;;;;;;48.37;26.73;;;;;;;3.00;67.64;101587.30;147807;1147;104979;-77
2021/03/03 06:26:19;;;;;;;67.55;33.40;;;;;;;3.01;67.72;101581.12;147810;1147;104492;-75
2021/03/03 06:29:23;;;;;;;54.37;29.30;;;;;;;3.02;68.46;101582.84;147744;1147;104854;-72
2021/03/03 06:32:26;;;;;;;51.37;28.30;;;;;;;3.00;68.59;101576.76;147760;1147;104556;-74
2021/03/03 06:35:41;;;;;;;52.38;28.80;;;;;;;2.99;68.17;101587.41;147244;1147;104550;-76
2021/03/03 06:38:44;;;;;;;45.12;25.32;;;;;;;2.99;68.60;101582.13;147819;1147;104636;-74
2021/03/03 06:41:48;;;;;;;51.20;25.75;;;;;;;2.98;69.11;101577.77;147725;1147;104495;-75
2021/03/03 06:44:54;;;;;;;47.73;24.80;;;;;;;3.05;68.71;101572.13;147767;1147;104523;-73
2021/03/03 06:47:58;;;;;;;43.20;22.37;;;;;;;3.17;68.34;101575.13;147815;1147;104446;-71
2021/03/03 06:51:01;;;;;;;41.15;23.40;;;;;;;3.25;68.52;101572.97;147606;1147;104812;-73
2021/03/03 06:54:06;;;;;;;41.63;23.60;;;;;;;3.28;68.67;101572.83;147397;1147;104867;-73
2021/03/03 06:57:13;;;;;;;44.98;24.50;;;;;;;3.30;68.60;101563.91;147793;1147;104581;-72
2021/03/03 07:00:43;;;;;;;54.18;28.95;;;;;;;3.33;68.74;101563.77;147436;1147;104489;-74
2021/03/03 07:03:46;;;;;;;58.28;32.78;;;;;;;3.38;69.09;101565.33;147607;1148;104512;-76
2021/03/03 07:06:50;;;;;;;58.00;31.03;;;;;;;3.38;68.15;101565.33;147748;1147;104626;-73
2021/03/03 07:09:58;;;;;;;57.95;32.80;;;;;;;3.39;69.32;101564.38;147815;1147;104468;-73
2021/03/03 07:13:02;;;;;;;58.68;35.45;;;;;;;3.37;68.97;101569.76;147767;1147;104456;-73
2021/03/03 07:16:07;;;;;;;55.05;32.88;;;;;;;3.31;68.60;101557.72;147799;1148;104546;-73
2021/03/03 07:19:20;;;;;;;51.20;29.67;;;;;;;3.28;68.32;101557.00;147794;1147;104470;-75
2021/03/03 07:22:30;;;;;;;66.90;40.15;;;;;;;3.25;68.79;101558.02;147755;1147;104751;-74
2021/03/03 07:25:33;;;;;;;49.13;26.75;;;;;;;3.30;68.32;101558.63;147790;1148;104618;-73
2021/03/03 07:28:38;;;;;;;44.75;25.30;;;;;;;3.40;68.21;101556.40;147497;1148;104483;-73
2021/03/03 07:31:41;;;;;;;51.18;30.27;;;;;;;3.51;67.90;101554.09;147776;1147;104454;-72
2021/03/03 07:34:48;;;;;;;50.10;27.60;;;;;;;3.64;69.06;101548.22;147784;1147;104547;-73
2021/03/03 07:37:54;;;;;;;46.27;25.83;;;;;;;3.74;68.16;101550.31;147748;1147;104631;-73
2021/03/03 07:41:02;;;;;;;44.40;23.90;;;;;;;3.81;68.08;101540.31;147747;1147;104457;-74
2021/03/03 07:44:07;;;;;;;45.87;25.73;;;;;;;3.86;68.64;101542.70;147780;1146;104460;-75
2021/03/03 07:47:11;;;;;;;53.78;28.65;;;;;;;3.88;68.40;101551.39;147730;1146;104918;-75
2021/03/03 07:50:17;;;;;;;45.10;24.60;;;;;;;3.95;67.99;101554.59;147806;1145;104552;-73
2021/03/03 07:53:20;;;;;;;46.85;25.37;;;;;;;3.93;67.98;101552.88;147789;1147;104612;-73
2021/03/03 07:56:24;;;;;;;44.25;24.87;;;;;;;3.91;67.97;101546.81;147780;1147;104465;-76
2021/03/03 07:59:28;;;;;;;45.52;24.92;;;;;;;3.91;68.49;101538.05;147761;1147;104453;-73
2021/03/03 08:02:46;;;;;;;43.68;24.70;;;;;;;3.91;67.91;101538.05;147720;1147;104552;-78
2021/03/03 08:05:49;;;;;;;41.85;24.25;;;;;;;3.94;68.89;101535.23;147628;1147;104535;-73
2021/03/03 08:09:18;;;;;;;75.00;36.93;;;;;;;3.95;68.05;101531.67;147765;1147;104629;-73
2021/03/03 08:12:22;;;;;;;49.67;26.45;;;;;;;4.05;68.44;101522.33;147782;1147;104559;-73
2021/03/03 08:15:45;;;;;;;50.08;27.87;;;;;;;4.14;67.99;101521.02;147776;1148;104477;-73
2021/03/03 08:18:54;;;;;;;44.93;26.30;;;;;;;4.27;68.32;101519.44;147797;1147;104517;-74
2021/03/03 08:21:58;;;;;;;51.13;29.70;;;;;;;4.41;68.52;101512.56;147821;1147;104443;-73
2021/03/03 08:25:01;;;;;;;59.30;32.20;;;;;;;4.47;67.78;101517.52;147760;1147;104572;-74
2021/03/03 08:28:29;;;;;;;65.95;36.98;;;;;;;4.45;68.41;101519.39;147585;1147;105990;-74
2021/03/03 08:31:36;;;;;;;55.40;30.77;;;;;;;4.49;68.14;101519.13;147384;1147;104566;-73
2021/03/03 08:34:54;;;;;;;54.80;32.60;;;;;;;4.52;68.25;101515.45;147907;1146;104849;-73
2021/03/03 08:38:16;;;;;;;73.20;41.93;;;;;;;4.62;67.96;101498.17;147670;1147;104546;-73
2021/03/03 08:41:32;;;;;;;62.75;38.83;;;;;;;4.68;68.35;101499.63;147835;1147;104462;-73
2021/03/03 08:44:59;;;;;;;56.47;31.13;;;;;;;4.72;68.09;101495.88;148029;1146;104479;-73
2021/03/03 08:48:02;;;;;;;60.25;32.70;;;;;;;4.75;68.04;101500.12;147808;1147;104542;-74
2021/03/03 08:51:21;;;;;;;59.33;32.00;;;;;;;4.78;67.76;101499.97;147753;1146;104453;-74
2021/03/03 08:54:42;;;;;;;155.07;75.52;;;;;;;4.72;68.12;101498.52;147639;1147;104553;-78
2021/03/03 08:57:45;;;;;;;64.77;32.10;;;;;;;4.75;68.01;101500.12;147795;1147;104660;-73
2021/03/03 09:00:48;;;;;;;61.18;31.40;;;;;;;4.85;68.18;101501.31;147804;1147;104433;-74
2021/03/03 09:03:53;;;;;;;55.40;30.72;;;;;;;4.88;67.59;101491.42;147781;1146;104547;-73
2021/03/03 09:06:58;;;;;;;54.27;32.33;;;;;;;5.00;68.12;101495.16;147702;1147;104514;-76
2021/03/03 09:10:04;;;;;;;65.92;40.58;;;;;;;5.16;67.99;101492.52;147808;1147;104532;-73
2021/03/03 09:13:07;;;;;;;56.35;31.02;;;;;;;5.25;68.06;101493.77;147751;1147;104633;-74
2021/03/03 09:16:12;;;;;;;50.30;29.35;;;;;;;5.34;67.67;101487.11;147795;1147;104541;-73
2021/03/03 09:19:17;;;;;;;53.78;30.80;;;;;;;5.35;67.38;101475.56;147710;1147;104470;-75
2021/03/03 09:22:22;;;;;;;52.58;30.12;;;;;;;5.37;67.95;101471.91;147787;1147;104464;-74
2021/03/03 09:25:26;;;;;;;51.20;29.82;;;;;;;5.40;67.24;101469.06;147794;1147;104580;-73
2021/03/03 09:28:42;;;;;;;50.83;29.82;;;;;;;5.42;67.80;101469.83;147790;1146;104558;-74
2021/03/03 09:31:45;;;;;;;53.40;31.65;;;;;;;5.50;67.74;101464.95;147755;1146;104625;-73
2021/03/03 09:34:52;;;;;;;54.27;31.33;;;;;;;5.51;67.67;101471.09;147769;1147;104492;-73
2021/03/03 09:37:56;;;;;;;59.08;34.90;;;;;;;5.60;67.50;101459.97;147773;1148;104562;-72
2021/03/03 09:41:11;;;;;;;62.85;35.43;;;;;;;5.65;67.74;101462.33;147601;1147;104534;-77
2021/03/03 09:44:14;;;;;;;59.88;34.55;;;;;;;5.69;67.28;101464.69;147789;1147;104588;-74
2021/03/03 09:47:26;;;;;;;59.60;30.75;;;;;;;5.71;67.39;101465.45;147753;1147;104565;-74
2021/03/03 09:50:30;;;;;;;65.67;33.87;;;;;;;5.73;67.86;101465.36;147785;1147;104556;-74
2021/03/03 09:53:33;;;;;;;60.60;33.23;;;;;;;5.92;67.24;101456.31;147382;1146;104484;-74
2021/03/03 09:56:37;;;;;;;63.90;36.33;;;;;;;6.03;66.85;101462.69;147548;1146;104547;-74
2021/03/03 09:59:45;;;;;;;58.80;34.23;;;;;;;6.15;67.11;101460.23;147335;1146;104469;-75
2021/03/03 10:02:50;;;;;;;65.42;36.25;;;;;;;6.18;67.12;101452.08;147382;1145;104536;-74
2021/03/03 10:05:56;;;;;;;61.40;35.13;;;;;;;6.26;67.12;101455.97;147381;1147;104544;-73
2021/03/03 10:09:00;;;;;;;71.37;38.80;;;;;;;6.33;67.08;101450.28;147320;1147;104583;-75
2021/03/03 10:12:07;;;;;;;71.87;38.95;;;;;;;6.36;67.54;101450.09;147745;1147;104549;-73
2021/03/03 10:15:13;;;;;;;67.37;36.73;;;;;;;6.39;66.44;101439.28;147561;1147;104572;-73
2021/03/03 10:18:16;;;;;;;70.70;39.50;;;;;;;6.46;67.21;101435.30;147626;1146;104552;-73
2021/03/03 10:21:19;;;;;;;69.37;39.25;;;;;;;6.52;66.60;101424.30;147367;1147;104451;-74
2021/03/03 10:24:25;;;;;;;85.67;48.30;;;;;;;6.49;67.33;101420.05;147674;1147;104475;-76
2021/03/03 10:27:35;;;;;;;98.80;61.27;;;;;;;6.52;66.80;101418.99;147745;1147;104460;-73
2021/03/03 10:30:40;;;;;;;82.07;49.23;;;;;;;6.61;67.00;101417.56;147424;1147;104630;-73
2021/03/03 10:33:44;;;;;;;316.23;170.80;;;;;;;6.64;66.39;101420.88;147370;1146;104614;-75
2021/03/03 10:36:48;;;;;;;157.18;78.55;;;;;;;6.73;66.14;101407.95;147675;1147;104453;-74
2021/03/03 10:39:52;;;;;;;92.00;46.70;;;;;;;6.80;67.64;101407.45;147751;1147;104553;-74
2021/03/03 10:43:07;;;;;;;76.23;41.40;;;;;;;6.72;66.93;101393.86;147785;1148;104545;-77
2021/03/03 10:46:12;;;;;;;136.30;66.22;;;;;;;6.72;67.59;101388.55;147778;1146;104567;-74
2021/03/03 10:49:18;;;;;;;268.67;124.00;;;;;;;6.81;67.48;101387.95;147792;1147;104469;-73
2021/03/03 10:52:22;;;;;;;88.67;47.60;;;;;;;6.97;67.18;101376.33;147620;1147;104489;-73
2021/03/03 10:55:31;;;;;;;83.30;44.45;;;;;;;7.13;66.85;101371.67;147316;1147;104475;-76
2021/03/03 10:58:39;;;;;;;92.95;48.48;;;;;;;7.32;67.14;101371.28;147748;1146;104523;-74
2021/03/03 11:01:45;;;;;;;81.87;43.80;;;;;;;7.41;66.69;101360.04;147481;1146;104672;-74
2021/03/03 11:04:48;;;;;;;80.85;43.23;;;;;;;7.40;66.52;101360.98;147773;1148;104636;-79
2021/03/03 11:07:51;;;;;;;74.40;43.02;;;;;;;7.51;66.53;101364.73;147754;1148;104559;-74
2021/03/03 11:11:06;;;;;;;102.02;61.35;;;;;;;7.65;66.95;101359.29;147642;1146;104504;-74
2021/03/03 11:14:09;;;;;;;80.97;46.10;;;;;;;7.70;65.13;101350.98;147298;1147;104522;-74
2021/03/03 11:17:13;;;;;;;77.22;43.73;;;;;;;7.74;66.31;101353.34;147555;1147;104529;-76
2021/03/03 11:20:16;;;;;;;76.87;43.02;;;;;;;7.68;66.13;101351.12;147754;1146;104535;-74
2021/03/03 11:23:19;;;;;;;112.85;60.63;;;;;;;7.65;66.33;101348.66;147792;1147;104531;-74
2021/03/03 11:26:22;;;;;;;158.27;80.37;;;;;;;7.58;65.66;101334.98;147769;1148;104658;-76
2021/03/03 11:29:26;;;;;;;100.13;53.30;;;;;;;7.45;66.18;101340.28;147790;1147;104554;-73
2021/03/03 11:32:29;;;;;;;140.10;68.85;;;;;;;7.31;66.21;101326.25;147593;1147;104745;-74
2021/03/03 11:35:32;;;;;;;114.40;60.95;;;;;;;7.11;66.88;101317.01;147728;1146;104886;-74
2021/03/03 11:38:35;;;;;;;118.57;64.30;;;;;;;7.00;66.94;101321.22;147711;1147;104469;-75
2021/03/03 11:41:38;;;;;;;104.77;56.90;;;;;;;6.90;67.17;101317.50;147749;1147;104483;-76
2021/03/03 11:44:41;;;;;;;114.25;52.25;;;;;;;6.83;67.18;101305.59;147730;1147;105001;-74
2021/03/03 11:47:45;;;;;;;100.72;50.38;;;;;;;6.84;66.75;101294.87;147278;1146;104630;-75
2021/03/03 11:50:48;;;;;;;93.15;47.65;;;;;;;6.87;66.33;101293.81;147266;1148;104545;-76
2021/03/03 11:53:51;;;;;;;91.90;47.17;;;;;;;6.93;67.58;101290.77;147546;1147;104543;-74
2021/03/03 11:56:54;;;;;;;89.40;47.37;;;;;;;6.95;67.06;101282.68;147744;1147;104544;-73
2021/03/03 11:59:57;;;;;;;80.75;45.17;;;;;;;6.96;67.13;101276.44;147790;1147;104553;-76
2021/03/03 12:03:00;;;;;;;94.45;50.38;;;;;;;6.97;66.84;101271.03;147406;1146;104617;-74
2021/03/03 12:06:04;;;;;;;96.97;52.13;;;;;;;6.97;67.80;101264.88;147516;1146;104451;-74
2021/03/03 12:09:07;;;;;;;89.30;49.53;;;;;;;6.96;66.81;101258.70;147693;1148;104566;-76
2021/03/03 12:12:12;;;;;;;105.50;58.55;;;;;;;6.98;66.97;101246.17;147803;1147;104815;-73
2021/03/03 12:15:16;;;;;;;97.33;54.33;;;;;;;7.00;66.89;101249.57;147816;1147;104818;-77
2021/03/03 12:18:19;;;;;;;91.35;49.83;;;;;;;7.02;68.18;101239.70;147745;1147;104592;-74
2021/03/03 12:21:22;;;;;;;104.17;52.70;;;;;;;7.04;67.38;101240.47;147786;1147;104460;-74
2021/03/03 12:24:26;;;;;;;89.65;46.58;;;;;;;7.14;67.40;101234.50;147729;1146;104470;-74
2021/03/03 12:27:29;;;;;;;94.43;50.27;;;;;;;7.22;67.10;101242.80;147365;1146;104503;-73
2021/03/03 12:30:32;;;;;;;91.97;47.93;;;;;;;7.30;67.25;101227.17;147730;1147;104488;-74
2021/03/03 12:33:35;;;;;;;89.62;49.18;;;;;;;7.35;67.33;101222.41;147778;1147;104610;-73
2021/03/03 12:36:38;;;;;;;82.33;47.13;;;;;;;7.43;68.35;101216.55;147808;1147;104947;-73
2021/03/03 12:39:42;;;;;;;84.97;48.33;;;;;;;7.51;68.13;101202.72;147682;1147;104655;-73
2021/03/03 12:42:45;;;;;;;90.90;50.38;;;;;;;7.54;67.65;101211.29;147565;1147;104444;-74
2021/03/03 12:45:48;;;;;;;89.90;49.88;;;;;;;7.59;67.67;101208.33;147652;1147;104496;-75
2021/03/03 12:48:51;;;;;;;86.53;48.15;;;;;;;7.63;67.78;101204.48;147781;1146;104620;-76
2021/03/03 12:51:54;;;;;;;86.42;48.87;;;;;;;7.66;68.09;101196.30;147791;1148;104522;-76
2021/03/03 12:54:57;;;;;;;93.65;54.70;;;;;;;7.70;67.76;101187.15;147651;1147;104499;-77
2021/03/03 12:58:01;;;;;;;82.40;42.62;;;;;;;7.71;67.52;101180.86;147715;1146;104550;-74
2021/03/03 13:01:05;;;;;;;91.30;46.42;;;;;;;7.80;67.22;101172.22;147856;1147;104472;-74
2021/03/03 13:04:09;;;;;;;89.17;50.15;;;;;;;7.96;67.76;101163.13;147688;1147;104746;-75
2021/03/03 13:07:12;;;;;;;84.37;45.75;;;;;;;8.06;67.54;101161.47;147767;1146;104541;-72
2021/03/03 13:10:15;;;;;;;86.25;49.65;;;;;;;8.17;66.93;101158.85;147748;1147;104503;-74
2021/03/03 13:13:19;;;;;;;88.47;48.80;;;;;;;8.25;67.69;101156.45;147787;1147;104652;-79
2021/03/03 13:16:22;;;;;;;87.88;49.25;;;;;;;8.32;67.58;101142.72;147787;1147;104535;-71
2021/03/03 13:19:25;;;;;;;89.87;50.30;;;;;;;8.37;68.05;101140.54;147734;1147;104853;-73
2021/03/03 13:22:28;;;;;;;85.40;48.40;;;;;;;8.40;67.50;101143.81;147764;1147;104589;-75
2021/03/03 13:25:31;;;;;;;81.90;49.85;;;;;;;8.41;67.13;101136.67;147771;1148;104469;-74
2021/03/03 13:28:34;;;;;;;96.25;54.38;;;;;;;8.41;67.08;101136.67;147372;1147;104440;-74
2021/03/03 13:31:37;;;;;;;95.37;51.83;;;;;;;8.41;67.86;101128.70;147788;1147;104536;-74
2021/03/03 13:34:41;;;;;;;93.30;51.83;;;;;;;8.44;67.68;101125.84;147582;1146;104599;-76
2021/03/03 13:37:45;;;;;;;83.47;47.17;;;;;;;8.44;67.11;101116.05;147820;1147;104547;-74
2021/03/03 13:40:48;;;;;;;82.67;44.18;;;;;;;8.45;67.82;101117.76;147694;1146;104489;-73
2021/03/03 13:43:51;;;;;;;87.70;46.53;;;;;;;8.51;67.43;101100.48;147456;1147;104525;-75
2021/03/03 13:46:55;;;;;;;89.33;49.50;;;;;;;8.62;67.83;101095.17;147521;1147;104453;-73
2021/03/03 13:49:58;;;;;;;81.45;45.50;;;;;;;8.72;67.42;101086.45;147698;1147;104547;-73